createdAt,value
2019-03-19T00:00:29.865Z,12.07
2019-03-19T00:03:00.543Z,12.17
2019-03-19T00:05:31.170Z,12.00
2019-03-19T00:08:01.851Z,12.80
2019-03-19T00:10:32.433Z,11.23
2019-03-19T00:13:02.872Z,11.73
2019-03-19T00:15:33.304Z,10.43
2019-03-19T00:18:04.817Z,12.53
2019-03-19T00:20:35.402Z,11.87
2019-03-19T00:23:06.216Z,12.20
2019-03-19T00:25:36.665Z,11.23
2019-03-19T00:28:07.255Z,11.47
2019-03-19T00:30:37.916Z,12.07
2019-03-19T00:33:08.477Z,12.87
2019-03-19T00:35:38.946Z,11.07
2019-03-19T00:38:09.559Z,11.27
2019-03-19T00:40:40.035Z,12.17
2019-03-19T00:43:10.477Z,10.97
2019-03-19T00:45:40.927Z,10.37
2019-03-19T00:48:11.456Z,11.23
2019-03-19T00:50:42.696Z,10.40
2019-03-19T00:53:13.227Z,10.83
2019-03-19T00:55:43.826Z,11.43
2019-03-19T00:58:14.315Z,10.57
2019-03-19T01:00:44.786Z,11.03
2019-03-19T01:03:15.257Z,10.07
2019-03-19T01:05:45.723Z,10.70
2019-03-19T01:08:16.397Z,10.50
2019-03-19T01:10:46.805Z,10.20
2019-03-19T01:13:17.457Z,10.33
2019-03-19T01:15:47.906Z,10.53
2019-03-19T01:18:18.298Z,10.00
2019-03-19T01:20:50.353Z,10.53
2019-03-19T01:23:20.903Z,10.63
2019-03-19T01:25:55.534Z,9.53
2019-03-19T01:28:23.517Z,9.90
2019-03-19T01:30:54.133Z,10.00
2019-03-19T01:33:24.603Z,9.00
2019-03-19T01:35:55.176Z,10.57
2019-03-19T01:38:25.667Z,10.30
2019-03-19T01:40:56.132Z,9.87
2019-03-19T01:43:26.829Z,10.43
2019-03-19T01:45:57.495Z,9.80
2019-03-19T01:48:28.225Z,10.87
2019-03-19T01:50:58.826Z,11.43
2019-03-19T01:53:29.356Z,9.40
2019-03-19T01:56:05.232Z,10.70
2019-03-19T01:58:31.967Z,10.43
2019-03-19T02:01:02.525Z,9.50
2019-03-19T02:03:33.154Z,10.87
2019-03-19T02:06:03.673Z,10.77
2019-03-19T02:08:34.408Z,9.73
2019-03-19T02:11:04.992Z,9.17
2019-03-19T02:13:35.577Z,10.60
2019-03-19T02:16:06.118Z,10.27
2019-03-19T02:18:36.629Z,10.20
2019-03-19T02:21:07.103Z,8.87
2019-03-19T02:23:37.595Z,10.30
2019-03-19T02:26:16.060Z,9.03
2019-03-19T02:28:40.370Z,9.87
2019-03-19T02:31:10.970Z,9.60
2019-03-19T02:33:41.651Z,8.87
2019-03-19T02:36:12.171Z,9.47
2019-03-19T02:38:42.686Z,9.27
2019-03-19T02:41:14.151Z,8.87
2019-03-19T02:43:44.752Z,8.87
2019-03-19T02:46:18.486Z,8.60
2019-03-19T02:48:48.946Z,8.83
2019-03-19T02:51:19.453Z,9.70
2019-03-19T02:53:49.894Z,9.03
2019-03-19T02:56:31.745Z,9.50
2019-03-19T02:58:52.685Z,9.27
2019-03-19T03:01:23.179Z,9.23
2019-03-19T03:03:53.834Z,9.57
2019-03-19T03:06:24.229Z,9.27
2019-03-19T03:08:54.776Z,8.80
2019-03-19T03:11:25.369Z,9.07
2019-03-19T03:13:55.919Z,8.93
2019-03-19T03:16:26.352Z,9.87
2019-03-19T03:18:56.919Z,9.13
2019-03-19T03:21:27.329Z,9.00
2019-03-19T03:23:57.802Z,9.17
2019-03-19T03:26:29.408Z,9.60
2019-03-19T03:28:59.998Z,9.13
2019-03-19T03:31:30.401Z,8.20
2019-03-19T03:34:00.889Z,7.93
2019-03-19T03:36:31.415Z,8.80
2019-03-19T03:39:06.472Z,8.30
2019-03-19T03:41:37.257Z,9.47
2019-03-19T03:44:07.869Z,8.53
2019-03-19T03:46:38.450Z,9.37
2019-03-19T03:49:08.947Z,8.50
2019-03-19T03:51:39.428Z,9.00
2019-03-19T03:54:09.943Z,8.37
2019-03-19T03:56:40.568Z,8.13
2019-03-19T03:59:11.041Z,8.97
2019-03-19T04:01:41.600Z,9.30
2019-03-19T04:04:12.096Z,8.80
2019-03-19T04:06:42.548Z,9.57
2019-03-19T04:09:12.990Z,8.23
2019-03-19T04:11:43.406Z,8.37
2019-03-19T04:14:13.971Z,7.67
2019-03-19T04:16:44.501Z,9.00
2019-03-19T04:19:15.223Z,8.00
2019-03-19T04:21:45.724Z,8.27
2019-03-19T04:24:16.290Z,9.10
2019-03-19T04:26:46.792Z,8.47
2019-03-19T04:29:17.278Z,8.27
2019-03-19T04:31:47.972Z,8.50
2019-03-19T04:34:18.588Z,8.30
2019-03-19T04:36:49.013Z,8.07
2019-03-19T04:39:19.530Z,8.67
2019-03-19T04:41:49.991Z,8.17
2019-03-19T04:44:20.518Z,8.77
2019-03-19T04:46:51.080Z,7.17
2019-03-19T04:49:21.900Z,8.53
2019-03-19T04:51:53.536Z,8.67
2019-03-19T04:54:24.161Z,8.43
2019-03-19T04:56:54.816Z,8.70
2019-03-19T04:59:28.203Z,8.53
2019-03-19T05:01:58.821Z,10.33
2019-03-19T05:04:30.069Z,9.43
2019-03-19T05:07:00.631Z,8.90
2019-03-19T05:09:31.945Z,9.33
2019-03-19T05:12:02.588Z,9.07
2019-03-19T05:14:35.535Z,9.30
2019-03-19T05:17:05.928Z,9.60
2019-03-19T05:19:36.641Z,9.33
2019-03-19T05:22:07.247Z,8.53
2019-03-19T05:24:37.784Z,8.93
2019-03-19T05:27:08.520Z,8.97
2019-03-19T05:29:38.938Z,7.73
2019-03-19T05:32:09.466Z,8.93
2019-03-19T05:34:39.932Z,7.30
2019-03-19T05:37:10.528Z,8.33
2019-03-19T05:39:41.139Z,8.77
2019-03-19T05:42:11.789Z,8.10
2019-03-19T05:44:42.424Z,7.67
2019-03-19T05:47:13.175Z,7.87
2019-03-19T05:49:43.702Z,7.77
2019-03-19T05:52:14.338Z,7.63
2019-03-19T05:54:44.843Z,8.07
2019-03-19T05:57:15.615Z,7.67
2019-03-19T05:59:46.121Z,7.83
2019-03-19T06:02:18.262Z,7.83
2019-03-19T06:04:48.753Z,7.43
2019-03-19T06:07:19.434Z,7.67
2019-03-19T06:09:53.726Z,8.17
2019-03-19T06:12:24.383Z,7.57
2019-03-19T06:14:55.251Z,8.90
2019-03-19T06:17:25.852Z,5.90
2019-03-19T06:19:56.408Z,7.23
2019-03-19T06:22:27.002Z,7.00
2019-03-19T06:24:58.676Z,7.83
2019-03-19T06:27:30.401Z,6.70
2019-03-19T06:30:01.029Z,7.20
2019-03-19T06:32:32.912Z,6.80
2019-03-19T06:35:03.568Z,6.93
2019-03-19T06:37:34.091Z,5.90
2019-03-19T06:40:05.345Z,6.43
2019-03-19T06:42:35.859Z,7.27
2019-03-19T06:45:07.598Z,7.07
2019-03-19T06:47:40.597Z,8.00
2019-03-19T06:50:12.467Z,6.60
2019-03-19T06:52:43.205Z,5.90
2019-03-19T06:55:14.025Z,6.47
2019-03-19T06:57:44.649Z,6.80
2019-03-19T07:00:17.837Z,7.17
2019-03-19T07:02:48.456Z,7.30
2019-03-19T07:05:19.842Z,5.50
2019-03-19T07:07:50.575Z,6.73
2019-03-19T07:10:21.407Z,6.80
2019-03-19T07:12:52.121Z,6.00
2019-03-19T07:15:22.818Z,6.27
2019-03-19T07:17:53.481Z,6.30
2019-03-19T07:20:24.080Z,5.50
2019-03-19T07:22:54.554Z,5.30
2019-03-19T07:25:25.159Z,5.53
2019-03-19T07:27:57.726Z,5.57
2019-03-19T07:30:28.400Z,4.80
2019-03-19T07:33:00.071Z,5.27
2019-03-19T07:35:30.650Z,4.40
2019-03-19T07:38:01.237Z,5.97
2019-03-19T07:40:31.797Z,4.27
2019-03-19T07:43:02.390Z,5.67
2019-03-19T07:45:32.889Z,5.23
2019-03-19T07:48:06.667Z,5.00
2019-03-19T07:50:37.146Z,4.77
2019-03-19T07:53:07.712Z,5.90
2019-03-19T07:55:38.210Z,6.53
2019-03-19T07:58:35.878Z,5.37
2019-03-19T08:00:56.340Z,7.07
2019-03-19T08:03:27.037Z,7.70
2019-03-19T08:05:57.527Z,8.13
2019-03-19T08:08:28.097Z,6.83
2019-03-19T08:10:58.717Z,6.07
2019-03-19T08:13:29.427Z,6.37
2019-03-19T08:16:00.122Z,7.23
2019-03-19T08:18:30.725Z,7.47
2019-03-19T08:21:01.437Z,6.80
2019-03-19T08:23:32.479Z,7.53
2019-03-19T08:26:03.065Z,6.43
2019-03-19T08:28:33.900Z,6.87
2019-03-19T08:31:04.900Z,8.07
2019-03-19T08:33:37.397Z,7.10
2019-03-19T08:36:09.487Z,6.83
2019-03-19T08:38:40.081Z,8.00
2019-03-19T08:41:10.676Z,7.93
2019-03-19T08:43:41.182Z,7.93
2019-03-19T08:46:11.828Z,8.13
2019-03-19T08:48:42.545Z,7.67
2019-03-19T08:51:12.983Z,7.63
2019-03-19T08:53:43.601Z,7.93
2019-03-19T08:56:14.237Z,7.30
2019-03-19T08:58:44.718Z,8.10
2019-03-19T09:01:15.259Z,7.43
2019-03-19T09:03:45.811Z,7.67
2019-03-19T09:06:16.437Z,8.20
2019-03-19T09:08:46.939Z,7.73
2019-03-19T09:11:17.598Z,8.37
2019-03-19T09:13:48.182Z,8.00
2019-03-19T09:16:19.032Z,7.37
2019-03-19T09:18:49.468Z,7.47
2019-03-19T09:21:20.057Z,6.90
2019-03-19T09:23:50.571Z,7.20
2019-03-19T09:26:21.388Z,7.20
2019-03-19T09:28:51.905Z,6.50
2019-03-19T09:31:22.571Z,5.87
2019-03-19T09:33:53.195Z,6.97
2019-03-19T09:36:24.948Z,6.77
2019-03-19T09:38:55.618Z,6.53
2019-03-19T09:41:26.067Z,6.20
2019-03-19T09:43:56.622Z,6.90
2019-03-19T09:46:27.698Z,6.90
2019-03-19T09:48:58.111Z,6.63
2019-03-19T09:51:28.565Z,7.40
2019-03-19T09:53:58.979Z,7.00
2019-03-19T09:56:29.587Z,6.83
2019-03-19T09:59:00.175Z,6.10
2019-03-19T10:01:30.736Z,6.90
2019-03-19T10:04:01.264Z,6.80
2019-03-19T10:06:32.180Z,5.20
2019-03-19T10:09:02.859Z,5.63
2019-03-19T10:11:33.429Z,5.40
2019-03-19T10:14:04.225Z,5.50
2019-03-19T10:16:34.672Z,5.77
2019-03-19T10:19:06.100Z,5.30
2019-03-19T10:21:36.721Z,6.03
2019-03-19T10:24:07.303Z,5.47
2019-03-19T10:26:38.105Z,6.27
2019-03-19T10:29:08.738Z,6.20
2019-03-19T10:31:39.474Z,6.07
2019-03-19T10:34:10.082Z,5.30
2019-03-19T10:36:40.854Z,5.60
2019-03-19T10:39:11.312Z,5.53
2019-03-19T10:41:41.793Z,5.70
2019-03-19T10:44:12.331Z,6.47
2019-03-19T10:46:42.826Z,6.03
2019-03-19T10:49:13.275Z,6.20
2019-03-19T10:51:43.738Z,6.23
2019-03-19T10:54:14.235Z,5.90
2019-03-19T10:56:44.758Z,6.20
2019-03-19T10:59:15.280Z,6.33
2019-03-19T11:01:45.927Z,5.57
2019-03-19T11:04:16.570Z,5.73
2019-03-19T11:06:48.870Z,5.93
2019-03-19T11:09:19.517Z,5.50
2019-03-19T11:11:50.102Z,6.70
2019-03-19T11:14:21.827Z,6.10
2019-03-19T11:16:52.417Z,5.67
2019-03-19T11:19:23.169Z,5.47
2019-03-19T11:21:53.757Z,5.13
2019-03-19T11:24:24.249Z,5.40
2019-03-19T11:26:54.830Z,4.10
2019-03-19T11:29:25.536Z,4.80
2019-03-19T11:31:56.365Z,4.73
2019-03-19T11:34:27.095Z,5.00
2019-03-19T11:36:58.216Z,5.00
2019-03-19T11:39:29.572Z,4.20
2019-03-19T11:41:59.942Z,4.60
2019-03-19T11:44:30.522Z,4.97
2019-03-19T11:47:01.032Z,4.57
2019-03-19T11:49:31.797Z,4.80
2019-03-19T11:52:02.457Z,5.43
2019-03-19T11:54:33.281Z,4.97
2019-03-19T11:57:03.799Z,5.87
2019-03-19T11:59:34.430Z,5.23
2019-03-19T12:02:05.027Z,4.90
2019-03-19T12:04:35.595Z,5.60
2019-03-19T12:07:06.220Z,5.57
2019-03-19T12:09:36.645Z,4.80
2019-03-19T12:12:07.129Z,5.07
2019-03-19T12:14:37.755Z,4.77
2019-03-19T12:17:08.240Z,3.57
2019-03-19T12:19:38.848Z,4.50
2019-03-19T12:22:09.343Z,4.97
2019-03-19T12:24:40.356Z,4.67
2019-03-19T12:27:10.924Z,6.60
2019-03-19T12:29:41.521Z,4.17
2019-03-19T12:32:12.028Z,4.60
2019-03-19T12:34:42.763Z,4.70
2019-03-19T12:37:13.591Z,4.80
2019-03-19T12:39:45.147Z,4.20
2019-03-19T12:42:15.751Z,3.97
2019-03-19T12:44:46.180Z,3.43
2019-03-19T12:47:16.886Z,4.40
2019-03-19T12:49:47.515Z,4.07
2019-03-19T12:52:18.207Z,3.90
2019-03-19T12:54:48.859Z,4.00
2019-03-19T12:57:19.517Z,3.60
2019-03-19T12:59:50.139Z,3.70
2019-03-19T13:02:20.779Z,4.30
2019-03-19T13:04:51.188Z,3.90
2019-03-19T13:07:21.958Z,3.60
2019-03-19T13:09:52.512Z,3.97
2019-03-19T13:12:24.263Z,4.43
2019-03-19T13:14:55.007Z,4.00
2019-03-19T13:17:25.619Z,3.70
2019-03-19T13:19:56.240Z,3.93
2019-03-19T13:22:26.769Z,3.40
2019-03-19T13:24:57.389Z,3.60
2019-03-19T13:27:29.139Z,4.30
2019-03-19T13:30:00.538Z,3.77
2019-03-19T13:32:31.067Z,3.47
2019-03-19T13:35:02.827Z,2.57
2019-03-19T13:37:33.470Z,4.13
2019-03-19T13:40:04.634Z,3.80
2019-03-19T13:42:35.266Z,4.13
2019-03-19T13:45:07.069Z,4.03
2019-03-19T13:47:38.203Z,3.20
2019-03-19T13:50:09.294Z,3.27
2019-03-19T13:52:41.336Z,3.00
2019-03-19T13:55:12.966Z,3.37
2019-03-19T13:57:43.602Z,3.57
2019-03-19T14:00:14.839Z,4.50
2019-03-19T14:02:45.657Z,4.27
2019-03-19T14:05:16.453Z,4.83
2019-03-19T14:07:48.411Z,4.57
2019-03-19T14:10:19.053Z,4.23
2019-03-19T14:12:49.618Z,4.17
2019-03-19T14:15:20.298Z,4.10
2019-03-19T14:17:50.863Z,4.03
2019-03-19T14:20:21.561Z,3.93
2019-03-19T14:22:52.117Z,4.10
2019-03-19T14:25:22.838Z,3.83
2019-03-19T14:27:53.486Z,4.47
2019-03-19T14:30:24.203Z,3.97
2019-03-19T14:32:55.033Z,3.90
2019-03-19T14:35:36.632Z,4.30
2019-03-19T14:37:57.923Z,3.93
2019-03-19T14:40:28.780Z,4.30
2019-03-19T14:43:01.452Z,4.17
2019-03-19T14:45:31.988Z,3.87
2019-03-19T14:48:02.698Z,3.80
2019-03-19T14:50:33.125Z,4.13
2019-03-19T14:53:03.984Z,4.33
2019-03-19T14:55:34.556Z,3.50
2019-03-19T14:58:07.473Z,4.03
2019-03-19T15:00:38.157Z,3.43
2019-03-19T15:03:08.712Z,3.50
2019-03-19T15:05:39.367Z,3.90
2019-03-19T15:08:10.072Z,4.37
2019-03-19T15:10:40.912Z,4.17
2019-03-19T15:13:11.747Z,4.47
2019-03-19T15:15:42.435Z,3.70
2019-03-19T15:18:13.286Z,4.20
2019-03-19T15:20:43.845Z,4.20
2019-03-19T15:23:14.610Z,4.20
2019-03-19T15:25:45.362Z,4.27
2019-03-19T15:28:15.817Z,4.03
2019-03-19T15:30:46.481Z,3.93
2019-03-19T15:33:17.157Z,4.63
2019-03-19T15:35:47.928Z,3.73
2019-03-19T15:38:18.581Z,4.17
2019-03-19T15:40:49.112Z,4.83
2019-03-19T15:43:19.616Z,4.57
2019-03-19T15:45:50.368Z,5.37
2019-03-19T15:48:22.159Z,5.03
2019-03-19T15:50:52.793Z,5.07
2019-03-19T15:53:26.359Z,6.40
2019-03-19T15:55:58.827Z,5.13
2019-03-19T15:58:29.404Z,6.03
2019-03-19T16:01:00.037Z,6.73
2019-03-19T16:03:30.761Z,6.07
2019-03-19T16:06:01.460Z,6.70
2019-03-19T16:08:32.139Z,6.80
2019-03-19T16:11:03.050Z,7.23
2019-03-19T16:13:33.451Z,6.93
2019-03-19T16:16:06.778Z,6.93
2019-03-19T16:18:38.525Z,7.77
2019-03-19T16:21:09.354Z,8.17
2019-03-19T16:23:40.430Z,8.20
2019-03-19T16:26:11.394Z,8.43
2019-03-19T16:28:42.188Z,9.20
2019-03-19T16:31:12.810Z,10.17
2019-03-19T16:33:43.682Z,10.00
2019-03-19T16:36:14.606Z,11.07
2019-03-19T16:38:46.276Z,11.90
2019-03-19T16:41:16.827Z,11.07
2019-03-19T16:43:47.485Z,10.87
2019-03-19T16:46:18.158Z,10.57
2019-03-19T16:48:48.876Z,10.63
2019-03-19T16:51:19.477Z,10.07
2019-03-19T16:53:50.028Z,10.23
2019-03-19T16:56:20.697Z,9.53
2019-03-19T16:58:52.227Z,9.70
2019-03-19T17:01:22.772Z,9.27
2019-03-19T17:03:53.548Z,9.37
2019-03-19T17:06:24.202Z,9.50
2019-03-19T17:08:55.039Z,10.57
2019-03-19T17:11:25.723Z,11.67
2019-03-19T17:13:56.237Z,11.63
2019-03-19T17:16:29.726Z,11.93
2019-03-19T17:19:00.717Z,12.40
2019-03-19T17:21:31.409Z,12.63
2019-03-19T17:24:03.184Z,13.03
2019-03-19T17:26:33.986Z,14.17
2019-03-19T17:29:06.085Z,15.77
2019-03-19T17:31:37.117Z,14.60
2019-03-19T17:34:07.826Z,14.53
2019-03-19T17:36:38.667Z,15.27
2019-03-19T17:39:09.332Z,17.30
2019-03-19T17:41:40.034Z,16.47
2019-03-19T17:44:10.793Z,19.47
2019-03-19T17:46:41.920Z,19.40
2019-03-19T17:49:13.772Z,19.77
2019-03-19T17:51:44.713Z,19.67
2019-03-19T17:54:15.841Z,19.37
2019-03-19T17:56:51.848Z,17.90
2019-03-19T17:59:22.807Z,19.23
2019-03-19T18:01:53.927Z,19.47
2019-03-19T18:04:27.120Z,19.13
2019-03-19T18:06:57.968Z,18.03
2019-03-19T18:09:31.630Z,18.03
2019-03-19T18:12:04.138Z,17.17
2019-03-19T18:14:44.394Z,17.07
2019-03-19T18:17:16.509Z,19.00
2019-03-19T18:19:49.218Z,20.20
2019-03-19T18:22:20.231Z,18.83
2019-03-19T18:24:50.892Z,20.60
2019-03-19T18:27:21.978Z,21.70
2019-03-19T18:29:55.577Z,21.50
2019-03-19T18:32:34.748Z,21.17
2019-03-19T18:34:59.629Z,22.50
2019-03-19T18:37:30.481Z,23.17
2019-03-19T18:40:01.513Z,23.30
2019-03-19T18:42:32.415Z,21.57
2019-03-19T18:45:03.605Z,22.50
2019-03-19T18:47:35.840Z,22.57
2019-03-19T18:50:09.235Z,23.07
2019-03-19T18:52:40.512Z,23.03
2019-03-19T18:55:11.620Z,23.27
2019-03-19T18:57:42.903Z,25.13
2019-03-19T19:00:16.886Z,24.63
2019-03-19T19:02:51.079Z,24.63
2019-03-19T19:05:23.599Z,23.33
2019-03-19T19:07:56.359Z,25.40
2019-03-19T19:10:32.169Z,24.50
2019-03-19T19:13:06.725Z,24.73
2019-03-19T19:15:39.734Z,23.77
2019-03-19T19:18:10.768Z,22.17
2019-03-19T19:20:42.584Z,22.40
2019-03-19T19:23:15.477Z,21.87
2019-03-19T19:25:47.520Z,21.87
2019-03-19T19:28:20.617Z,20.70
2019-03-19T19:30:52.926Z,22.33
2019-03-19T19:33:23.864Z,21.30
2019-03-19T19:35:57.929Z,23.03
2019-03-19T19:38:31.071Z,22.90
2019-03-19T19:41:04.900Z,23.77
2019-03-19T19:43:36.075Z,22.20
2019-03-19T19:46:07.846Z,23.20
2019-03-19T19:48:39.425Z,22.37
2019-03-19T19:51:10.481Z,22.90
2019-03-19T19:53:41.631Z,24.37
2019-03-19T19:56:13.583Z,22.53
2019-03-19T19:58:48.555Z,24.07
2019-03-19T20:01:19.845Z,25.17
2019-03-19T20:03:51.765Z,26.50
2019-03-19T20:06:22.607Z,25.67
2019-03-19T20:08:53.292Z,26.17
2019-03-19T20:11:24.171Z,23.93
2019-03-19T20:13:55.288Z,25.40
2019-03-19T20:16:27.065Z,25.77
2019-03-19T20:18:58.008Z,25.07
2019-03-19T20:21:29.227Z,24.57
2019-03-19T20:24:00.174Z,24.30
2019-03-19T20:26:32.583Z,24.67
2019-03-19T20:29:03.309Z,25.60
2019-03-19T20:31:33.977Z,25.30
2019-03-19T20:34:04.855Z,25.27
2019-03-19T20:36:35.744Z,23.57
2019-03-19T20:39:08.445Z,24.67
2019-03-19T20:41:39.444Z,25.50
2019-03-19T20:44:10.245Z,25.90
2019-03-19T20:46:40.975Z,26.07
2019-03-19T20:49:13.655Z,25.90
2019-03-19T20:51:44.607Z,25.97
2019-03-19T20:54:17.478Z,26.93
2019-03-19T20:56:48.327Z,29.70
2019-03-19T20:59:24.739Z,31.80
2019-03-19T21:01:55.624Z,34.17
2019-03-19T21:04:28.697Z,36.73
2019-03-19T21:06:58.555Z,46.53
2019-03-19T21:09:29.006Z,43.10
2019-03-19T21:11:59.592Z,37.47
2019-03-19T21:14:30.051Z,38.43
2019-03-19T21:17:01.627Z,35.77
2019-03-19T21:19:32.214Z,31.37
2019-03-19T21:22:05.770Z,31.57
2019-03-19T21:24:36.416Z,33.73
2019-03-19T21:27:06.897Z,35.67
2019-03-19T21:29:37.472Z,38.63
2019-03-19T21:32:08.068Z,36.73
2019-03-19T21:34:44.560Z,37.80
2019-03-19T21:37:20.645Z,40.27
2019-03-19T21:39:52.226Z,37.47
2019-03-19T21:42:22.715Z,38.57
2019-03-19T21:44:53.278Z,42.33
2019-03-19T21:47:24.076Z,43.43
2019-03-19T21:49:54.716Z,47.17
2019-03-19T21:52:25.446Z,44.93
2019-03-19T21:54:55.938Z,45.53
2019-03-19T21:57:29.067Z,44.53
2019-03-19T21:59:59.587Z,43.63
2019-03-19T22:02:30.339Z,45.80
2019-03-19T22:05:00.865Z,50.60
2019-03-19T22:07:32.642Z,54.07
2019-03-19T22:10:03.228Z,52.43
2019-03-19T22:12:33.831Z,58.60
2019-03-19T22:15:05.028Z,81.27
2019-03-19T22:17:35.708Z,61.33
2019-03-19T22:20:06.696Z,46.17
2019-03-19T22:22:40.903Z,46.27
2019-03-19T22:25:32.732Z,42.73
2019-03-19T22:28:03.408Z,39.57
2019-03-19T22:30:34.381Z,37.90
2019-03-19T22:33:05.109Z,37.90
2019-03-19T22:35:35.778Z,37.67
2019-03-19T22:38:06.508Z,36.27
2019-03-19T22:40:38.983Z,33.73
2019-03-19T22:43:09.519Z,34.03
2019-03-19T22:45:40.110Z,34.17
2019-03-19T22:48:12.270Z,34.10
2019-03-19T22:50:42.914Z,34.60
2019-03-19T22:53:13.453Z,36.57
2019-03-19T22:55:43.962Z,36.67
2019-03-19T22:58:14.471Z,34.63
2019-03-19T23:00:49.894Z,38.57
2019-03-19T23:03:20.587Z,36.03
2019-03-19T23:05:51.117Z,33.33
2019-03-19T23:08:21.667Z,28.90
2019-03-19T23:10:52.298Z,29.60
2019-03-19T23:13:22.916Z,28.30
2019-03-19T23:15:53.666Z,28.37
2019-03-19T23:18:24.218Z,30.93
2019-03-19T23:20:54.918Z,30.17
2019-03-19T23:23:25.654Z,28.50
2019-03-19T23:25:56.364Z,28.53
2019-03-19T23:28:27.036Z,29.10
2019-03-19T23:30:57.730Z,30.50
2019-03-19T23:33:28.376Z,36.10
2019-03-19T23:35:59.010Z,34.30
2019-03-19T23:38:29.588Z,32.57
2019-03-19T23:41:00.271Z,34.77
2019-03-19T23:43:30.917Z,34.37
2019-03-19T23:46:01.511Z,34.60
2019-03-19T23:48:32.174Z,36.00
2019-03-19T23:51:02.868Z,36.60
2019-03-19T23:53:33.538Z,34.40
2019-03-19T23:56:04.220Z,36.17
2019-03-19T23:58:34.906Z,33.87
